createdAt,value
2019-03-03T00:01:37.385Z,7.20
2019-03-03T00:04:08.215Z,7.20
2019-03-03T00:06:37.853Z,7.17
2019-03-03T00:09:08.202Z,7.16
2019-03-03T00:11:37.906Z,7.14
2019-03-03T00:14:07.681Z,7.25
2019-03-03T00:16:37.386Z,7.13
2019-03-03T00:19:07.065Z,7.25
2019-03-03T00:21:36.754Z,7.19
2019-03-03T00:24:06.470Z,7.38
2019-03-03T00:26:36.129Z,7.25
2019-03-03T00:29:05.792Z,7.25
2019-03-03T00:31:41.529Z,7.37
2019-03-03T00:34:11.226Z,7.39
2019-03-03T00:36:59.109Z,7.44
2019-03-03T00:39:36.605Z,7.44
2019-03-03T00:42:23.175Z,7.32
2019-03-03T00:45:00.504Z,7.42
2019-03-03T00:47:38.068Z,7.61
2019-03-03T00:50:09.535Z,7.53
2019-03-03T00:52:40.824Z,7.55
2019-03-03T00:55:14.820Z,7.62
2019-03-03T00:57:48.748Z,7.68
2019-03-03T01:00:37.980Z,7.61
2019-03-03T01:03:09.399Z,7.72
2019-03-03T01:05:56.962Z,7.72
2019-03-03T01:08:37.493Z,7.76
2019-03-03T01:11:17.803Z,7.97
2019-03-03T01:13:58.212Z,8.02
2019-03-03T01:16:41.825Z,7.98
2019-03-03T01:19:13.146Z,8.06
2019-03-03T01:22:00.830Z,8.01
2019-03-03T01:24:32.148Z,8.20
2019-03-03T01:27:01.910Z,8.19
2019-03-03T01:29:31.573Z,8.32
2019-03-03T01:32:01.513Z,8.24
2019-03-03T01:34:34.231Z,8.28
2019-03-03T01:37:03.958Z,8.41
2019-03-03T01:39:33.931Z,8.50
2019-03-03T01:42:03.716Z,8.52
2019-03-03T01:44:33.371Z,8.57
2019-03-03T01:47:03.052Z,8.71
2019-03-03T01:49:32.776Z,8.62
2019-03-03T01:52:02.493Z,8.70
2019-03-03T01:54:32.194Z,8.74
2019-03-03T01:57:01.946Z,8.72
2019-03-03T01:59:31.613Z,8.74
2019-03-03T02:02:01.335Z,8.68
2019-03-03T02:04:30.982Z,8.72
2019-03-03T02:07:00.714Z,8.81
2019-03-03T02:09:30.661Z,8.83
2019-03-03T02:12:00.437Z,8.88
2019-03-03T02:14:30.212Z,8.80
2019-03-03T02:16:59.956Z,8.82
2019-03-03T02:19:29.988Z,8.83
2019-03-03T02:21:59.741Z,8.84
2019-03-03T02:24:29.384Z,8.78
2019-03-03T02:26:59.116Z,8.80
2019-03-03T02:29:28.842Z,8.84
2019-03-03T02:31:58.766Z,8.97
2019-03-03T02:34:28.488Z,8.95
2019-03-03T02:36:58.529Z,8.85
2019-03-03T02:39:31.371Z,8.83
2019-03-03T02:42:01.079Z,8.84
2019-03-03T02:44:30.803Z,8.88
2019-03-03T02:47:00.461Z,8.74
2019-03-03T02:49:30.160Z,8.80
2019-03-03T02:52:07.107Z,8.89
2019-03-03T02:54:36.757Z,8.92
2019-03-03T02:57:06.457Z,8.85
2019-03-03T02:59:36.128Z,8.86
2019-03-03T03:02:07.519Z,8.92
2019-03-03T03:04:37.293Z,8.81
2019-03-03T03:07:08.551Z,8.83
2019-03-03T03:09:39.933Z,8.88
2019-03-03T03:12:13.998Z,8.85
2019-03-03T03:14:45.617Z,8.92
2019-03-03T03:17:26.438Z,8.92
2019-03-03T03:19:58.028Z,9.01
2019-03-03T03:22:35.834Z,8.93
2019-03-03T03:25:26.665Z,9.00
2019-03-03T03:28:14.323Z,8.92
2019-03-03T03:30:45.723Z,9.05
2019-03-03T03:33:20.003Z,9.05
2019-03-03T03:35:54.255Z,9.09
2019-03-03T03:38:34.274Z,9.20
2019-03-03T03:41:05.612Z,9.11
2019-03-03T03:43:49.261Z,9.17
2019-03-03T03:46:20.598Z,9.11
2019-03-03T03:49:06.968Z,9.02
2019-03-03T03:51:55.030Z,9.19
2019-03-03T03:54:25.873Z,9.21
2019-03-03T03:57:05.856Z,9.24
2019-03-03T03:59:42.962Z,9.20
2019-03-03T04:02:32.745Z,9.21
2019-03-03T04:05:20.815Z,9.22
2019-03-03T04:07:55.033Z,9.10
2019-03-03T04:10:26.373Z,8.98
2019-03-03T04:13:06.600Z,8.88
2019-03-03T04:15:40.805Z,8.89
2019-03-03T04:18:18.272Z,8.82
2019-03-03T04:21:02.001Z,8.92
2019-03-03T04:23:35.989Z,8.83
2019-03-03T04:26:09.865Z,8.74
2019-03-03T04:28:43.908Z,8.70
2019-03-03T04:31:21.372Z,8.73
2019-03-03T04:33:52.848Z,8.73
2019-03-03T04:36:30.125Z,8.69
2019-03-03T04:39:10.711Z,8.68
2019-03-03T04:41:44.853Z,8.83
2019-03-03T04:44:25.397Z,8.78
2019-03-03T04:46:56.707Z,8.73
2019-03-03T04:49:44.647Z,8.72
2019-03-03T04:52:34.326Z,8.80
2019-03-03T04:55:09.885Z,8.77
2019-03-03T04:57:46.772Z,8.71
2019-03-03T05:00:20.867Z,8.60
2019-03-03T05:03:04.125Z,8.60
2019-03-03T05:05:38.153Z,8.74
2019-03-03T05:08:12.138Z,8.63
2019-03-03T05:10:44.538Z,8.66
2019-03-03T05:13:18.959Z,8.68
2019-03-03T05:15:56.111Z,8.59
2019-03-03T05:18:42.492Z,8.65
2019-03-03T05:21:12.230Z,8.66
2019-03-03T05:23:42.953Z,8.62
2019-03-03T05:26:12.636Z,8.56
2019-03-03T05:28:42.293Z,8.59
2019-03-03T05:31:12.165Z,8.53
2019-03-03T05:33:41.876Z,8.50
2019-03-03T05:36:11.535Z,8.61
2019-03-03T05:38:44.444Z,8.62
2019-03-03T05:41:14.105Z,8.62
2019-03-03T05:43:43.809Z,8.61
2019-03-03T05:46:15.193Z,8.61
2019-03-03T05:48:44.889Z,8.69
2019-03-03T05:51:14.613Z,8.61
2019-03-03T05:53:44.382Z,8.68
2019-03-03T05:56:14.098Z,8.64
2019-03-03T05:58:43.894Z,8.61
2019-03-03T06:01:13.540Z,8.69
2019-03-03T06:03:43.215Z,8.68
2019-03-03T06:06:15.979Z,8.69
2019-03-03T06:08:45.735Z,8.72
2019-03-03T06:11:15.384Z,8.71
2019-03-03T06:13:45.096Z,8.76
2019-03-03T06:16:14.737Z,8.71
2019-03-03T06:18:44.475Z,8.73
2019-03-03T06:21:14.265Z,8.76
2019-03-03T06:23:43.937Z,8.85
2019-03-03T06:26:15.234Z,8.78
2019-03-03T06:28:44.937Z,8.83
2019-03-03T06:31:14.593Z,8.78
2019-03-03T06:33:44.414Z,8.84
2019-03-03T06:36:14.201Z,8.75
2019-03-03T06:38:43.849Z,8.80
2019-03-03T06:41:13.769Z,8.82
2019-03-03T06:43:43.460Z,8.87
2019-03-03T06:46:13.165Z,8.80
2019-03-03T06:48:42.993Z,8.81
2019-03-03T06:51:12.638Z,8.83
2019-03-03T06:53:42.307Z,8.78
2019-03-03T06:56:14.240Z,8.75
2019-03-03T06:58:43.654Z,8.76
2019-03-03T07:01:13.346Z,8.83
2019-03-03T07:03:43.030Z,8.83
2019-03-03T07:06:12.739Z,8.76
2019-03-03T07:08:42.402Z,8.81
2019-03-03T07:11:12.089Z,8.87
2019-03-03T07:13:41.780Z,8.87
2019-03-03T07:16:11.414Z,8.90
2019-03-03T07:18:41.652Z,8.96
2019-03-03T07:21:11.308Z,8.95
2019-03-03T07:23:41.056Z,8.97
2019-03-03T07:26:10.767Z,9.05
2019-03-03T07:28:40.475Z,9.00
2019-03-03T07:31:10.284Z,9.02
2019-03-03T07:33:40.021Z,9.04
2019-03-03T07:36:09.712Z,9.06
2019-03-03T07:38:39.377Z,9.07
2019-03-03T07:41:09.043Z,9.11
2019-03-03T07:43:38.746Z,9.09
2019-03-03T07:46:08.391Z,9.10
2019-03-03T07:48:38.021Z,9.09
2019-03-03T07:51:07.672Z,9.07
2019-03-03T07:53:37.368Z,9.11
2019-03-03T07:56:07.097Z,9.11
2019-03-03T07:58:36.749Z,9.15
2019-03-03T08:01:06.465Z,9.15
2019-03-03T08:03:36.041Z,9.21
2019-03-03T08:06:05.746Z,9.19
2019-03-03T08:08:35.398Z,9.22
2019-03-03T08:11:05.134Z,9.23
2019-03-03T08:13:34.783Z,9.25
2019-03-03T08:16:04.562Z,9.26
2019-03-03T08:18:34.227Z,9.25
2019-03-03T08:21:03.965Z,9.24
2019-03-03T08:23:33.623Z,9.22
2019-03-03T08:26:03.306Z,9.24
2019-03-03T08:28:33.068Z,9.27
2019-03-03T08:31:03.448Z,9.21
2019-03-03T08:33:33.127Z,9.18
2019-03-03T08:36:02.840Z,9.15
2019-03-03T08:38:32.506Z,9.21
2019-03-03T08:41:03.325Z,9.24
2019-03-03T08:43:34.667Z,9.23
2019-03-03T08:46:07.162Z,9.26
2019-03-03T08:48:44.334Z,9.28
2019-03-03T08:51:16.102Z,9.29
2019-03-03T08:53:47.392Z,9.29
2019-03-03T08:56:21.439Z,9.29
2019-03-03T08:58:52.821Z,9.28
2019-03-03T09:01:26.913Z,9.22
2019-03-03T09:04:00.244Z,9.26
2019-03-03T09:06:34.541Z,9.21
2019-03-03T09:09:19.615Z,9.22
2019-03-03T09:12:09.400Z,9.24
2019-03-03T09:14:40.743Z,9.25
2019-03-03T09:17:12.045Z,9.25
2019-03-03T09:19:49.217Z,9.21
2019-03-03T09:22:36.719Z,9.27
2019-03-03T09:25:10.043Z,9.31
2019-03-03T09:27:59.865Z,9.28
2019-03-03T09:30:31.167Z,9.24
2019-03-03T09:33:05.191Z,9.31
2019-03-03T09:35:36.508Z,9.37
2019-03-03T09:38:13.863Z,9.36
2019-03-03T09:40:48.474Z,9.39
2019-03-03T09:43:30.883Z,9.43
2019-03-03T09:46:18.115Z,9.46
2019-03-03T09:49:05.633Z,9.48
2019-03-03T09:51:39.677Z,9.55
2019-03-03T09:54:11.187Z,9.51
2019-03-03T09:56:44.986Z,9.52
2019-03-03T09:59:22.243Z,9.63
2019-03-03T10:02:09.691Z,9.68
2019-03-03T10:04:57.034Z,9.67
2019-03-03T10:07:37.963Z,9.70
2019-03-03T10:10:28.226Z,10.00
2019-03-03T10:13:16.191Z,10.16
2019-03-03T10:15:47.601Z,10.20
2019-03-03T10:18:25.154Z,10.43
2019-03-03T10:20:59.208Z,10.41
2019-03-03T10:23:36.501Z,10.41
2019-03-03T10:26:10.342Z,10.45
2019-03-03T10:28:44.228Z,10.32
2019-03-03T10:31:15.535Z,10.32
2019-03-03T10:34:01.748Z,10.32
2019-03-03T10:36:45.327Z,10.24
2019-03-03T10:39:22.445Z,10.16
2019-03-03T10:42:05.588Z,10.19
2019-03-03T10:44:46.006Z,10.19
2019-03-03T10:47:20.296Z,10.22
2019-03-03T10:49:54.590Z,10.23
2019-03-03T10:52:26.063Z,10.21
2019-03-03T10:54:57.390Z,10.26
2019-03-03T10:57:31.444Z,10.25
2019-03-03T11:00:21.248Z,10.32
2019-03-03T11:03:08.868Z,10.39
2019-03-03T11:05:55.187Z,10.26
2019-03-03T11:08:42.755Z,10.30
2019-03-03T11:11:23.376Z,10.24
2019-03-03T11:14:07.135Z,10.12
2019-03-03T11:16:50.502Z,9.99
2019-03-03T11:19:21.836Z,10.04
2019-03-03T11:21:59.103Z,10.03
2019-03-03T11:24:36.414Z,10.11
2019-03-03T11:27:13.868Z,10.15
2019-03-03T11:29:57.820Z,10.15
2019-03-03T11:32:44.065Z,10.25
2019-03-03T11:35:15.550Z,10.17
2019-03-03T11:37:49.941Z,10.15
2019-03-03T11:40:30.661Z,10.23
2019-03-03T11:43:10.838Z,10.22
2019-03-03T11:45:42.679Z,10.22
2019-03-03T11:48:30.557Z,10.29
2019-03-03T11:51:04.805Z,10.21
2019-03-03T11:53:36.078Z,10.23
2019-03-03T11:56:13.199Z,10.31
2019-03-03T11:58:47.500Z,10.26
2019-03-03T12:01:21.726Z,10.16
2019-03-03T12:04:08.337Z,10.07
2019-03-03T12:06:42.159Z,10.04
2019-03-03T12:09:29.771Z,10.12
2019-03-03T12:12:16.073Z,10.15
2019-03-03T12:14:51.109Z,10.11
2019-03-03T12:17:25.517Z,10.23
2019-03-03T12:19:56.894Z,10.21
2019-03-03T12:22:30.664Z,10.14
2019-03-03T12:25:02.166Z,10.11
2019-03-03T12:27:36.681Z,10.03
2019-03-03T12:30:17.048Z,9.98
2019-03-03T12:32:48.655Z,9.95
2019-03-03T12:35:20.099Z,9.96
2019-03-03T12:37:51.429Z,9.95
2019-03-03T12:40:39.146Z,9.94
2019-03-03T12:43:10.777Z,10.05
2019-03-03T12:45:42.126Z,10.04
2019-03-03T12:48:29.399Z,10.06
2019-03-03T12:51:00.807Z,10.11
2019-03-03T12:53:34.965Z,10.08
2019-03-03T12:56:12.120Z,10.09
2019-03-03T12:58:43.522Z,10.08
2019-03-03T13:01:31.082Z,10.13
2019-03-03T13:04:02.959Z,10.15
2019-03-03T13:06:43.458Z,10.19
2019-03-03T13:09:24.038Z,10.24
2019-03-03T13:12:01.259Z,10.30
2019-03-03T13:14:48.814Z,10.32
2019-03-03T13:17:29.150Z,10.25
2019-03-03T13:20:06.581Z,10.26
2019-03-03T13:22:46.793Z,10.34
2019-03-03T13:25:18.479Z,10.32
2019-03-03T13:27:58.827Z,10.21
2019-03-03T13:30:34.661Z,10.21
2019-03-03T13:33:20.854Z,10.11
2019-03-03T13:36:08.752Z,10.15
2019-03-03T13:38:40.639Z,10.17
2019-03-03T13:41:18.803Z,10.23
2019-03-03T13:43:48.769Z,10.21
2019-03-03T13:46:20.171Z,10.24
2019-03-03T13:48:51.332Z,10.06
2019-03-03T13:51:21.429Z,9.99
2019-03-03T13:53:51.274Z,9.96
2019-03-03T13:56:21.364Z,9.93
2019-03-03T13:58:51.539Z,9.87
2019-03-03T14:01:21.453Z,9.82
2019-03-03T14:03:51.195Z,9.79
2019-03-03T14:06:21.271Z,9.77
2019-03-03T14:08:51.069Z,9.69
2019-03-03T14:11:31.204Z,9.64
2019-03-03T14:14:04.630Z,9.63
2019-03-03T14:16:34.746Z,9.65
2019-03-03T14:19:04.650Z,9.66
2019-03-03T14:21:34.570Z,9.59
2019-03-03T14:24:04.810Z,9.56
2019-03-03T14:26:34.876Z,9.52
2019-03-03T14:29:05.473Z,9.58
2019-03-03T14:31:36.284Z,9.56
2019-03-03T14:38:05.840Z,9.55
2019-03-03T14:40:45.235Z,9.50
2019-03-03T14:43:20.181Z,9.48
2019-03-03T14:45:54.882Z,9.45
2019-03-03T14:48:33.214Z,9.42
2019-03-03T14:51:06.241Z,9.40
2019-03-03T14:54:13.592Z,9.31
2019-03-03T14:56:45.814Z,9.24
2019-03-03T14:59:18.335Z,9.19
2019-03-03T15:01:58.902Z,9.18
2019-03-03T15:04:45.561Z,9.18
2019-03-03T15:07:19.452Z,9.17
2019-03-03T15:09:54.874Z,9.08
2019-03-03T15:12:27.960Z,9.06
2019-03-03T15:15:02.730Z,9.02
2019-03-03T15:17:50.126Z,9.09
2019-03-03T15:20:24.512Z,9.05
2019-03-03T15:22:56.845Z,9.09
2019-03-03T15:25:31.296Z,9.09
2019-03-03T15:28:06.150Z,9.09
2019-03-03T15:30:38.008Z,9.11
2019-03-03T15:33:24.778Z,9.12
2019-03-03T15:35:56.168Z,9.13
2019-03-03T15:38:28.030Z,9.10
2019-03-03T15:40:58.794Z,9.14
2019-03-03T15:43:28.827Z,9.11
2019-03-03T15:45:58.951Z,9.09
2019-03-03T15:48:29.254Z,9.04
2019-03-03T15:50:59.462Z,9.03
2019-03-03T15:53:30.064Z,9.14
2019-03-03T15:56:00.220Z,9.06
2019-03-03T15:58:30.718Z,8.98
2019-03-03T16:01:01.147Z,8.91
2019-03-03T16:03:31.338Z,8.90
2019-03-03T16:06:01.230Z,8.93
2019-03-03T16:08:31.177Z,8.92
2019-03-03T16:11:05.619Z,8.96
2019-03-03T16:13:35.870Z,8.98
2019-03-03T16:16:06.769Z,9.04
2019-03-03T16:18:38.076Z,8.88
2019-03-03T16:21:08.252Z,8.98
2019-03-03T16:23:38.365Z,8.91
2019-03-03T16:26:08.832Z,9.08
2019-03-03T16:28:38.874Z,9.12
2019-03-03T16:31:08.611Z,8.99
2019-03-03T16:33:41.366Z,8.94
2019-03-03T16:36:11.885Z,8.98
2019-03-03T16:38:42.813Z,8.93
2019-03-03T16:41:14.187Z,9.00
2019-03-03T16:43:45.036Z,8.90
2019-03-03T16:46:15.843Z,8.85
2019-03-03T16:48:46.529Z,8.99
2019-03-03T16:51:16.571Z,8.94
2019-03-03T16:53:47.879Z,8.93
2019-03-03T16:56:18.469Z,8.90
2019-03-03T16:58:50.216Z,8.86
2019-03-03T17:01:20.669Z,8.84
2019-03-03T17:03:50.652Z,8.91
2019-03-03T17:06:21.970Z,8.83
2019-03-03T17:08:51.906Z,8.88
2019-03-03T17:11:21.737Z,8.80
2019-03-03T17:13:51.613Z,8.85
2019-03-03T17:16:21.572Z,8.80
2019-03-03T17:18:52.115Z,8.84
2019-03-03T17:21:22.190Z,8.82
2019-03-03T17:23:52.902Z,8.85
2019-03-03T17:26:24.601Z,8.87
2019-03-03T17:28:54.869Z,8.85
2019-03-03T17:31:26.167Z,8.84
2019-03-03T17:33:57.025Z,8.79
2019-03-03T17:36:29.571Z,8.82
2019-03-03T17:39:07.517Z,8.85
2019-03-03T17:41:38.652Z,8.94
2019-03-03T17:44:18.073Z,8.91
2019-03-03T17:47:00.727Z,8.89
2019-03-03T17:50:22.682Z,8.91
2019-03-03T17:56:40.656Z,9.04
2019-03-03T17:59:10.608Z,8.90
2019-03-03T18:01:40.678Z,8.79
2019-03-03T18:04:11.207Z,8.79
2019-03-03T18:06:47.835Z,8.92
2019-03-03T18:09:18.478Z,8.81
2019-03-03T18:11:54.487Z,9.07
2019-03-03T18:14:26.159Z,8.88
2019-03-03T18:17:00.030Z,8.89
2019-03-03T18:19:33.100Z,8.88
2019-03-03T18:22:03.707Z,8.84
2019-03-03T18:24:33.975Z,8.92
2019-03-03T18:27:03.891Z,8.84
2019-03-03T18:29:34.269Z,8.83
2019-03-03T18:32:04.138Z,8.82
2019-03-03T18:34:34.092Z,8.74
2019-03-03T18:37:04.344Z,8.74
2019-03-03T18:39:34.114Z,8.82
2019-03-03T18:42:04.353Z,8.94
2019-03-03T18:44:34.193Z,8.88
2019-03-03T18:47:04.494Z,8.81
2019-03-03T18:49:34.527Z,8.74
2019-03-03T18:52:05.107Z,8.76
2019-03-03T18:54:38.967Z,8.69
2019-03-03T18:57:09.687Z,8.73
2019-03-03T18:59:40.360Z,8.85
2019-03-03T19:02:10.678Z,8.83
2019-03-03T19:04:41.202Z,8.86
2019-03-03T19:07:12.513Z,8.91
2019-03-03T19:09:43.459Z,8.95
2019-03-03T19:12:14.531Z,8.99
2019-03-03T19:14:44.633Z,8.94
2019-03-03T19:17:14.771Z,9.14
2019-03-03T19:19:46.376Z,9.33
2019-03-03T19:22:16.976Z,9.33
2019-03-03T19:24:47.175Z,9.35
2019-03-03T19:27:16.806Z,9.38
2019-03-03T19:29:47.392Z,9.46
2019-03-03T19:32:17.762Z,9.56
2019-03-03T19:34:48.017Z,9.59
2019-03-03T19:37:18.988Z,9.62
2019-03-03T19:39:49.437Z,9.79
2019-03-03T19:42:20.062Z,9.83
2019-03-03T19:44:51.015Z,9.79
2019-03-03T19:47:20.972Z,9.93
2019-03-03T19:49:50.994Z,10.03
2019-03-03T19:52:21.990Z,10.07
2019-03-03T19:54:53.130Z,9.98
2019-03-03T19:57:23.281Z,10.09
2019-03-03T20:00:01.063Z,10.22
2019-03-03T20:02:31.874Z,10.22
2019-03-03T20:05:02.180Z,10.28
2019-03-03T20:07:32.434Z,10.41
2019-03-03T20:10:12.572Z,10.42
2019-03-03T20:12:43.159Z,10.32
2019-03-03T20:15:13.555Z,10.35
2019-03-03T20:17:46.095Z,10.39
2019-03-03T20:20:23.164Z,10.35
2019-03-03T20:22:53.402Z,10.43
2019-03-03T20:25:25.231Z,10.44
2019-03-03T20:27:59.219Z,10.40
2019-03-03T20:30:29.681Z,10.47
2019-03-03T20:32:59.670Z,10.48
2019-03-03T20:35:32.150Z,10.51
2019-03-03T20:38:02.695Z,10.52
2019-03-03T20:40:33.251Z,10.53
2019-03-03T20:43:04.586Z,10.49
2019-03-03T20:45:35.270Z,10.55
2019-03-03T20:48:05.677Z,10.55
2019-03-03T20:50:37.826Z,10.56
2019-03-03T20:53:08.069Z,10.56
2019-03-03T20:55:38.586Z,10.49
2019-03-03T20:58:09.817Z,10.60
2019-03-03T21:00:40.270Z,10.50
2019-03-03T21:03:10.631Z,10.43
2019-03-03T21:06:19.168Z,10.45
2019-03-03T21:09:33.339Z,10.47
2019-03-03T21:12:10.828Z,10.51
2019-03-03T21:14:40.854Z,10.45
2019-03-03T21:17:10.845Z,10.40
2019-03-03T21:19:40.837Z,10.42
2019-03-03T21:22:11.030Z,10.40
2019-03-03T21:24:40.913Z,10.40
2019-03-03T21:27:11.031Z,10.50
2019-03-03T21:29:41.009Z,10.40
2019-03-03T21:32:11.456Z,10.42
2019-03-03T21:34:41.443Z,10.50
2019-03-03T21:37:11.788Z,10.46
2019-03-03T21:39:42.090Z,10.42
2019-03-03T21:42:12.017Z,10.43
2019-03-03T21:44:42.790Z,10.42
2019-03-03T21:47:13.284Z,10.44
2019-03-03T21:49:43.506Z,10.42
2019-03-03T21:52:13.366Z,10.65
2019-03-03T21:54:43.308Z,10.51
2019-03-03T21:57:13.681Z,10.38
2019-03-03T21:59:43.984Z,10.54
2019-03-03T22:02:15.534Z,10.48
2019-03-03T22:04:45.809Z,10.45
2019-03-03T22:07:17.215Z,10.49
2019-03-03T22:09:47.283Z,10.47
2019-03-03T22:12:17.431Z,10.42
2019-03-03T22:14:47.291Z,10.39
2019-03-03T22:17:17.310Z,10.32
2019-03-03T22:19:47.421Z,10.42
2019-03-03T22:22:18.098Z,10.32
2019-03-03T22:24:52.760Z,10.32
2019-03-03T22:27:29.927Z,10.38
2019-03-03T22:30:03.195Z,10.36
2019-03-03T22:32:42.210Z,10.46
2019-03-03T22:35:20.183Z,10.42
2019-03-03T22:38:01.408Z,10.37
2019-03-03T22:40:41.745Z,10.39
2019-03-03T22:43:20.863Z,10.35
2019-03-03T22:45:57.075Z,10.43
2019-03-03T22:48:27.346Z,10.31
2019-03-03T22:50:57.647Z,10.35
2019-03-03T22:53:28.213Z,10.37
2019-03-03T22:55:58.258Z,10.38
2019-03-03T22:58:28.479Z,10.26
2019-03-03T23:01:08.137Z,10.41
2019-03-03T23:03:56.547Z,10.37
2019-03-03T23:06:36.715Z,10.30
2019-03-03T23:09:12.695Z,10.36
2019-03-03T23:12:13.141Z,10.34
2019-03-03T23:14:48.879Z,10.29
2019-03-03T23:17:43.944Z,10.30
2019-03-03T23:20:25.610Z,10.19
2019-03-03T23:23:17.830Z,10.11
2019-03-03T23:25:52.203Z,10.18
2019-03-03T23:28:22.229Z,10.15
2019-03-03T23:30:52.779Z,10.09
2019-03-03T23:33:22.571Z,10.23
2019-03-03T23:35:52.864Z,10.20
2019-03-03T23:38:22.664Z,10.12
2019-03-03T23:40:56.124Z,10.07
2019-03-03T23:43:26.972Z,10.08
2019-03-03T23:45:57.164Z,10.07
2019-03-03T23:48:27.171Z,10.09
2019-03-03T23:50:57.121Z,10.18
2019-03-03T23:53:26.999Z,10.19
2019-03-03T23:55:57.258Z,10.23
2019-03-03T23:58:28.035Z,10.24
